sensor_id;sensor_type;location;lat;lon;timestamp;pressure;altitude;pressure_sealevel;temperature;humidity
7105;BME280;3594;42.152;24.714;2024-03-22T00:02:16;51781.88;;;4.94;nan
7105;BME280;3594;42.152;24.714;2024-03-22T00:04:41;53954.38;;;4.80;nan
7105;BME280;3594;42.152;24.714;2024-03-22T00:07:06;54010.84;;;4.58;nan
7105;BME280;3594;42.152;24.714;2024-03-22T00:09:32;52432.75;;;4.39;nan
7105;BME280;3594;42.152;24.714;2024-03-22T00:11:57;47297.75;;;4.42;nan
7105;BME280;3594;42.152;24.714;2024-03-22T00:14:23;43847.09;;;4.39;nan
7105;BME280;3594;42.152;24.714;2024-03-22T00:16:48;40656.41;;;4.33;nan
7105;BME280;3594;42.152;24.714;2024-03-22T00:19:14;36524.94;;;4.04;nan
7105;BME280;3594;42.152;24.714;2024-03-22T00:21:39;33006.00;;;4.21;nan
7105;BME280;3594;42.152;24.714;2024-03-22T00:24:05;33316.22;;;4.05;nan
7105;BME280;3594;42.152;24.714;2024-03-22T00:26:30;34616.13;;;4.29;nan
7105;BME280;3594;42.152;24.714;2024-03-22T00:28:56;37514.09;;;4.39;nan
7105;BME280;3594;42.152;24.714;2024-03-22T00:31:23;40896.56;;;4.28;nan
7105;BME280;3594;42.152;24.714;2024-03-22T00:33:50;38872.28;;;4.12;nan
7105;BME280;3594;42.152;24.714;2024-03-22T00:36:16;36849.31;;;4.09;nan
7105;BME280;3594;42.152;24.714;2024-03-22T00:38:42;32034.28;;;4.07;nan
7105;BME280;3594;42.152;24.714;2024-03-22T00:41:07;26589.47;;;4.11;nan
7105;BME280;3594;42.152;24.714;2024-03-22T00:43:32;26275.88;;;4.23;nan
7105;BME280;3594;42.152;24.714;2024-03-22T00:45:58;22765.72;;;4.44;nan
7105;BME280;3594;42.152;24.714;2024-03-22T00:48:24;21164.13;;;4.39;nan
7105;BME280;3594;42.152;24.714;2024-03-22T00:50:49;17962.94;;;4.28;nan
7105;BME280;3594;42.152;24.714;2024-03-22T00:53:14;17976.25;;;4.61;nan
7105;BME280;3594;42.152;24.714;2024-03-22T00:55:40;17651.22;;;4.47;nan
7105;BME280;3594;42.152;24.714;2024-03-22T00:58:05;17015.41;;;4.55;nan
7105;BME280;3594;42.152;24.714;2024-03-22T01:00:31;18618.47;;;4.68;nan
7105;BME280;3594;42.152;24.714;2024-03-22T01:02:57;17990.59;;;4.96;nan
7105;BME280;3594;42.152;24.714;2024-03-22T01:05:22;18618.25;;;4.67;nan
7105;BME280;3594;42.152;24.714;2024-03-22T01:07:47;17661.09;;;4.72;nan
7105;BME280;3594;42.152;24.714;2024-03-22T01:10:13;18622.25;;;4.77;nan
7105;BME280;3594;42.152;24.714;2024-03-22T01:12:39;18300.03;;;4.71;nan
7105;BME280;3594;42.152;24.714;2024-03-22T01:15:06;18312.06;;;5.00;nan
7105;BME280;3594;42.152;24.714;2024-03-22T01:17:31;18951.81;;;5.00;nan
7105;BME280;3594;42.152;24.714;2024-03-22T01:19:57;19591.47;;;5.00;nan
7105;BME280;3594;42.152;24.714;2024-03-22T01:22:22;21193.31;;;5.03;nan
7105;BME280;3594;42.152;24.714;2024-03-22T01:24:48;22145.47;;;4.85;nan
7105;BME280;3594;42.152;24.714;2024-03-22T01:27:14;24384.63;;;4.80;nan
7105;BME280;3594;42.152;24.714;2024-03-22T01:29:39;23753.63;;;5.00;nan
7105;BME280;3594;42.152;24.714;2024-03-22T01:32:05;24708.88;;;4.88;nan
7105;BME280;3594;42.152;24.714;2024-03-22T01:34:30;25679.34;;;5.05;nan
7105;BME280;3594;42.152;24.714;2024-03-22T01:36:56;27265.13;;;4.74;nan
7105;BME280;3594;42.152;24.714;2024-03-22T01:39:22;27602.53;;;5.04;nan
7105;BME280;3594;42.152;24.714;2024-03-22T01:41:48;27917.28;;;4.93;nan
7105;BME280;3594;42.152;24.714;2024-03-22T01:44:13;27604.53;;;5.07;nan
7105;BME280;3594;42.152;24.714;2024-03-22T01:46:40;25993.69;;;4.94;nan
7105;BME280;3594;42.152;24.714;2024-03-22T01:49:06;25023.47;;;4.77;nan
7105;BME280;3594;42.152;24.714;2024-03-22T01:51:31;25017.94;;;4.66;nan
7105;BME280;3594;42.152;24.714;2024-03-22T01:54:01;23104.28;;;4.82;nan
7105;BME280;3594;42.152;24.714;2024-03-22T01:56:27;20213.34;;;4.59;nan
7105;BME280;3594;42.152;24.714;2024-03-22T01:58:53;15728.78;;;4.31;nan
7105;BME280;3594;42.152;24.714;2024-03-22T02:01:19;14463.69;;;4.64;nan
7105;BME280;3594;42.152;24.714;2024-03-22T02:03:45;15091.28;;;4.33;nan
7105;BME280;3594;42.152;24.714;2024-03-22T02:06:10;14780.31;;;4.57;nan
7105;BME280;3594;42.152;24.714;2024-03-22T02:08:36;13822.97;;;4.58;nan
7105;BME280;3594;42.152;24.714;2024-03-22T02:11:01;13180.03;;;4.43;nan
7105;BME280;3594;42.152;24.714;2024-03-22T02:13:27;12545.47;;;4.55;nan
7105;BME280;3594;42.152;24.714;2024-03-22T02:15:52;12867.16;;;4.63;nan
7105;BME280;3594;42.152;24.714;2024-03-22T02:18:18;12218.44;;;4.29;nan
7105;BME280;3594;42.152;24.714;2024-03-22T02:20:43;11266.53;;;4.44;nan
7105;BME280;3594;42.152;24.714;2024-03-22T02:23:09;10626.84;;;4.37;nan
7105;BME280;3594;42.152;24.714;2024-03-22T02:25:34;10627.44;;;4.39;nan
7105;BME280;3594;42.152;24.714;2024-03-22T02:27:59;10311.91;;;4.51;nan
7105;BME280;3594;42.152;24.714;2024-03-22T02:30:25;9670.13;;;4.35;nan
7105;BME280;3594;42.152;24.714;2024-03-22T02:32:50;9031.16;;;4.29;nan
7105;BME280;3594;42.152;24.714;2024-03-22T02:35:16;8075.56;;;4.29;nan
7105;BME280;3594;42.152;24.714;2024-03-22T02:37:41;8398.69;;;4.48;nan
7105;BME280;3594;42.152;24.714;2024-03-22T02:40:07;8075.06;;;4.27;nan
7105;BME280;3594;42.152;24.714;2024-03-22T02:42:33;8385.94;;;3.96;nan
7105;BME280;3594;42.152;24.714;2024-03-22T02:44:58;7749.66;;;3.97;nan
7105;BME280;3594;42.152;24.714;2024-03-22T02:47:23;7423.56;;;3.64;nan
7105;BME280;3594;42.152;24.714;2024-03-22T02:49:49;6793.03;;;3.89;nan
7105;BME280;3594;42.152;24.714;2024-03-22T02:52:14;6154.13;;;3.76;nan
7105;BME280;3594;42.152;24.714;2024-03-22T02:54:41;5511.69;;;3.44;nan
7105;BME280;3594;42.152;24.714;2024-03-22T02:57:06;5829.69;;;3.45;nan
7105;BME280;3594;42.152;24.714;2024-03-22T02:59:32;5193.31;;;3.41;nan
7105;BME280;3594;42.152;24.714;2024-03-22T03:01:57;4880.84;;;3.69;nan
7105;BME280;3594;42.152;24.714;2024-03-22T03:04:22;5193.72;;;3.43;nan
7105;BME280;3594;42.152;24.714;2024-03-22T03:06:48;5516.03;;;3.66;nan
7105;BME280;3594;42.152;24.714;2024-03-22T03:09:13;6787.34;;;3.63;nan
7105;BME280;3594;42.152;24.714;2024-03-22T03:11:41;6468.91;;;3.61;nan
7105;BME280;3594;42.152;24.714;2024-03-22T03:14:07;5511.59;;;3.43;nan
7105;BME280;3594;42.152;24.714;2024-03-22T03:16:32;5508.75;;;3.29;nan
7105;BME280;3594;42.152;24.714;2024-03-22T03:18:58;4874.34;;;3.34;nan
7105;BME280;3594;42.152;24.714;2024-03-22T03:21:23;4234.78;;;3.10;nan
7105;BME280;3594;42.152;24.714;2024-03-22T03:23:49;3599.53;;;3.08;nan
7105;BME280;3594;42.152;24.714;2024-03-22T03:26:14;2329.84;;;3.07;nan
7105;BME280;3594;42.152;24.714;2024-03-22T03:28:40;1063.09;;;3.24;nan
7105;BME280;3594;42.152;24.714;2024-03-22T03:31:05;1062.44;;;3.19;nan
7105;BME280;3594;42.152;24.714;2024-03-22T03:33:30;744.00;;;3.09;nan
7105;BME280;3594;42.152;24.714;2024-03-22T03:35:56;1062.56;;;3.20;nan
7105;BME280;3594;42.152;24.714;2024-03-22T03:38:21;745.34;;;3.20;nan
7105;BME280;3594;42.152;24.714;2024-03-22T03:40:48;746.19;;;3.27;nan
7105;BME280;3594;42.152;24.714;2024-03-22T03:43:13;743.50;;;3.05;nan
7105;BME280;3594;42.152;24.714;2024-03-22T03:45:38;744.38;;;3.12;nan
7105;BME280;3594;42.152;24.714;2024-03-22T03:48:04;105.00;;;2.66;nan
7105;BME280;3594;42.152;24.714;2024-03-22T03:50:29;108.63;;;2.99;nan
7105;BME280;3594;42.152;24.714;2024-03-22T03:52:55;-211.84;;;2.66;nan
7105;BME280;3594;42.152;24.714;2024-03-22T03:55:22;-526.50;;;2.88;nan
7105;BME280;3594;42.152;24.714;2024-03-22T03:57:47;-526.09;;;2.92;nan
7105;BME280;3594;42.152;24.714;2024-03-22T04:00:13;-210.19;;;2.82;nan
7105;BME280;3594;42.152;24.714;2024-03-22T04:02:38;-843.53;;;2.86;nan
7105;BME280;3594;42.152;24.714;2024-03-22T04:05:03;-846.03;;;2.60;nan
7105;BME280;3594;42.152;24.714;2024-03-22T04:07:29;-2116.59;;;2.08;nan
7105;BME280;3594;42.152;24.714;2024-03-22T04:09:54;-2428.75;;;2.69;nan
7105;BME280;3594;42.152;24.714;2024-03-22T04:12:20;-1478.66;;;2.70;nan
7105;BME280;3594;42.152;24.714;2024-03-22T04:14:45;-1160.94;;;2.80;nan
7105;BME280;3594;42.152;24.714;2024-03-22T04:17:10;-1161.44;;;2.75;nan
7105;BME280;3594;42.152;24.714;2024-03-22T04:19:36;-1797.53;;;2.42;nan
7105;BME280;3594;42.152;24.714;2024-03-22T04:22:02;-1479.25;;;2.62;nan
7105;BME280;3594;42.152;24.714;2024-03-22T04:24:27;-1478.75;;;2.68;nan
7105;BME280;3594;42.152;24.714;2024-03-22T04:26:52;-1480.41;;;2.49;nan
7105;BME280;3594;42.152;24.714;2024-03-22T04:29:18;-2111.69;;;2.75;nan
7105;BME280;3594;42.152;24.714;2024-03-22T04:31:43;-2113.81;;;2.46;nan
7105;BME280;3594;42.152;24.714;2024-03-22T04:34:09;-2747.06;;;2.42;nan
7105;BME280;3594;42.152;24.714;2024-03-22T04:36:35;-3062.53;;;2.59;nan
7105;BME280;3594;42.152;24.714;2024-03-22T04:39:01;-3062.09;;;2.66;nan
7105;BME280;3594;42.152;24.714;2024-03-22T04:41:26;-3694.84;;;2.74;nan
7105;BME280;3594;42.152;24.714;2024-03-22T04:43:52;-3694.41;;;2.83;nan
7105;BME280;3594;42.152;24.714;2024-03-22T04:46:17;-2743.69;;;2.95;nan
7105;BME280;3594;42.152;24.714;2024-03-22T04:48:42;-2426.31;;;3.04;nan
7105;BME280;3594;42.152;24.714;2024-03-22T04:51:08;-2109.47;;;3.04;nan
7105;BME280;3594;42.152;24.714;2024-03-22T04:53:33;-1475.03;;;3.13;nan
7105;BME280;3594;42.152;24.714;2024-03-22T04:55:59;-205.41;;;3.27;nan
7105;BME280;3594;42.152;24.714;2024-03-22T04:58:24;742.72;;;2.98;nan
7105;BME280;3594;42.152;24.714;2024-03-22T05:00:56;2015.59;;;3.28;nan
7105;BME280;3594;42.152;24.714;2024-03-22T05:03:22;2649.94;;;3.25;nan
7105;BME280;3594;42.152;24.714;2024-03-22T05:05:49;4239.31;;;3.36;nan
7105;BME280;3594;42.152;24.714;2024-03-22T05:08:14;5516.44;;;3.68;nan
7105;BME280;3594;42.152;24.714;2024-03-22T05:10:40;7109.25;;;3.80;nan
7105;BME280;3594;42.152;24.714;2024-03-22T05:13:05;9332.72;;;3.64;nan
7105;BME280;3594;42.152;24.714;2024-03-22T05:15:31;8385.56;;;3.94;nan
7105;BME280;3594;42.152;24.714;2024-03-22T05:17:57;7751.56;;;4.06;nan
7105;BME280;3594;42.152;24.714;2024-03-22T05:20:23;9023.59;;;3.99;nan
7105;BME280;3594;42.152;24.714;2024-03-22T05:22:49;8710.53;;;4.21;nan
7105;BME280;3594;42.152;24.714;2024-03-22T05:25:14;7759.34;;;4.38;nan
7105;BME280;3594;42.152;24.714;2024-03-22T05:27:40;8711.94;;;4.26;nan
7105;BME280;3594;42.152;24.714;2024-03-22T05:30:07;9678.41;;;4.66;nan
7105;BME280;3594;42.152;24.714;2024-03-22T05:32:33;12544.03;;;4.50;nan
7105;BME280;3594;42.152;24.714;2024-03-22T05:34:58;15429.56;;;4.86;nan
7105;BME280;3594;42.152;24.714;2024-03-22T05:37:24;14471.94;;;4.88;nan
7105;BME280;3594;42.152;24.714;2024-03-22T05:39:50;16077.88;;;5.11;nan
7105;BME280;3594;42.152;24.714;2024-03-22T05:42:16;15756.91;;;5.07;nan
7105;BME280;3594;42.152;24.714;2024-03-22T05:44:41;16723.34;;;5.26;nan
7105;BME280;3594;42.152;24.714;2024-03-22T05:47:06;20259.44;;;5.63;nan
7105;BME280;3594;42.152;24.714;2024-03-22T05:49:32;25065.16;;;5.57;nan
7105;BME280;3594;42.152;24.714;2024-03-22T05:51:57;27955.56;;;5.60;nan
7105;BME280;3594;42.152;24.714;2024-03-22T05:54:23;32456.44;;;5.64;nan
7105;BME280;3594;42.152;24.714;2024-03-22T05:56:48;41034.47;;;6.10;nan
7105;BME280;3594;42.152;24.714;2024-03-22T05:59:14;43528.91;;;6.11;nan
7105;BME280;3594;42.152;24.714;2024-03-22T06:01:39;45740.28;;;6.33;nan
7105;BME280;3594;42.152;24.714;2024-03-22T06:04:05;47820.31;;;6.49;nan
7105;BME280;3594;42.152;24.714;2024-03-22T06:06:34;51816.56;;;6.32;nan
7105;BME280;3594;42.152;24.714;2024-03-22T06:09:01;53707.38;;;6.63;nan
7105;BME280;3594;42.152;24.714;2024-03-22T06:11:30;54847.56;;;6.69;nan
7105;BME280;3594;42.152;24.714;2024-03-22T06:13:55;55069.88;;;6.63;nan
7105;BME280;3594;42.152;24.714;2024-03-22T06:16:21;56295.69;;;6.65;nan
7105;BME280;3594;42.152;24.714;2024-03-22T06:18:46;56323.13;;;7.08;nan
7105;BME280;3594;42.152;24.714;2024-03-22T06:21:13;55483.97;;;6.91;nan
7105;BME280;3594;42.152;24.714;2024-03-22T06:23:40;55347.47;;;7.09;nan
7105;BME280;3594;42.152;24.714;2024-03-22T06:26:05;54109.53;;;7.10;nan
7105;BME280;3594;42.152;24.714;2024-03-22T06:28:30;54859.88;;;7.21;nan
7105;BME280;3594;42.152;24.714;2024-03-22T06:30:56;55255.31;;;7.43;nan
7105;BME280;3594;42.152;24.714;2024-03-22T06:33:21;55604.59;;;7.32;nan
7105;BME280;3594;42.152;24.714;2024-03-22T06:35:47;54975.22;;;7.37;nan
7105;BME280;3594;42.152;24.714;2024-03-22T06:38:13;55201.41;;;7.35;nan
7105;BME280;3594;42.152;24.714;2024-03-22T06:40:38;54774.63;;;7.62;nan
7105;BME280;3594;42.152;24.714;2024-03-22T06:43:04;54337.81;;;7.74;nan
7105;BME280;3594;42.152;24.714;2024-03-22T06:45:29;55411.16;;;8.23;nan
7105;BME280;3594;42.152;24.714;2024-03-22T06:47:55;55881.56;;;8.41;nan
7105;BME280;3594;42.152;24.714;2024-03-22T06:50:20;56448.47;;;8.19;nan
7105;BME280;3594;42.152;24.714;2024-03-22T06:52:55;56844.88;;;8.56;nan
7105;BME280;3594;42.152;24.714;2024-03-22T06:55:20;57339.09;;;8.45;nan
7105;BME280;3594;42.152;24.714;2024-03-22T06:57:47;57856.34;;;8.81;nan
7105;BME280;3594;42.152;24.714;2024-03-22T07:00:13;58431.63;;;8.70;nan
7105;BME280;3594;42.152;24.714;2024-03-22T07:02:39;58826.97;;;9.04;nan
7105;BME280;3594;42.152;24.714;2024-03-22T07:05:06;58863.84;;;8.93;nan
7105;BME280;3594;42.152;24.714;2024-03-22T07:07:32;59089.75;;;9.04;nan
7105;BME280;3594;42.152;24.714;2024-03-22T07:09:58;59190.72;;;9.13;nan
7105;BME280;3594;42.152;24.714;2024-03-22T07:12:23;59640.34;;;9.47;nan
7105;BME280;3594;42.152;24.714;2024-03-22T07:14:49;59646.97;;;9.53;nan
7105;BME280;3594;42.152;24.714;2024-03-22T07:17:14;59851.28;;;9.46;nan
7105;BME280;3594;42.152;24.714;2024-03-22T07:19:40;59897.41;;;9.60;nan
7105;BME280;3594;42.152;24.714;2024-03-22T07:22:05;59922.06;;;9.85;nan
7105;BME280;3594;42.152;24.714;2024-03-22T07:24:31;59957.16;;;9.61;nan
7105;BME280;3594;42.152;24.714;2024-03-22T07:26:57;59932.75;;;9.62;nan
7105;BME280;3594;42.152;24.714;2024-03-22T07:29:22;59965.31;;;9.90;nan
7105;BME280;3594;42.152;24.714;2024-03-22T07:31:49;59944.06;;;10.14;nan
7105;BME280;3594;42.152;24.714;2024-03-22T07:34:14;60017.09;;;10.32;nan
7105;BME280;3594;42.152;24.714;2024-03-22T07:36:40;60113.13;;;10.38;nan
7105;BME280;3594;42.152;24.714;2024-03-22T07:39:06;60137.81;;;10.51;nan
7105;BME280;3594;42.152;24.714;2024-03-22T07:41:33;60159.75;;;10.74;nan
7105;BME280;3594;42.152;24.714;2024-03-22T07:43:59;60107.91;;;10.82;nan
7105;BME280;3594;42.152;24.714;2024-03-22T07:46:25;60158.78;;;10.80;nan
7105;BME280;3594;42.152;24.714;2024-03-22T07:48:51;60298.00;;;11.16;nan
7105;BME280;3594;42.152;24.714;2024-03-22T07:51:16;60218.03;;;10.69;nan
7105;BME280;3594;42.152;24.714;2024-03-22T07:53:42;60329.22;;;11.16;nan
7105;BME280;3594;42.152;24.714;2024-03-22T07:56:07;60404.47;;;11.17;nan
7105;BME280;3594;42.152;24.714;2024-03-22T07:58:32;60424.28;;;11.37;nan
7105;BME280;3594;42.152;24.714;2024-03-22T08:00:58;60492.09;;;11.41;nan
7105;BME280;3594;42.152;24.714;2024-03-22T08:03:23;60610.06;;;11.76;nan
7105;BME280;3594;42.152;24.714;2024-03-22T08:05:49;60567.47;;;11.37;nan
7105;BME280;3594;42.152;24.714;2024-03-22T08:08:14;60525.75;;;11.50;nan
7105;BME280;3594;42.152;24.714;2024-03-22T08:10:39;60628.63;;;11.88;nan
7105;BME280;3594;42.152;24.714;2024-03-22T08:13:05;60642.50;;;12.10;nan
7105;BME280;3594;42.152;24.714;2024-03-22T08:15:30;60809.91;;;12.20;nan
7105;BME280;3594;42.152;24.714;2024-03-22T08:17:56;60712.56;;;12.40;nan
7105;BME280;3594;42.152;24.714;2024-03-22T08:20:24;60721.50;;;12.32;nan
7105;BME280;3594;42.152;24.714;2024-03-22T08:22:50;60846.50;;;12.27;nan
7105;BME280;3594;42.152;24.714;2024-03-22T08:25:15;60799.06;;;12.61;nan
7105;BME280;3594;42.152;24.714;2024-03-22T08:27:46;60785.78;;;12.72;nan
7105;BME280;3594;42.152;24.714;2024-03-22T08:30:12;60756.50;;;12.71;nan
7105;BME280;3594;42.152;24.714;2024-03-22T08:32:37;60818.56;;;12.71;nan
7105;BME280;3594;42.152;24.714;2024-03-22T08:35:03;60864.03;;;12.96;nan
7105;BME280;3594;42.152;24.714;2024-03-22T08:37:30;60895.28;;;13.01;nan
7105;BME280;3594;42.152;24.714;2024-03-22T08:39:55;60873.97;;;12.77;nan
7105;BME280;3594;42.152;24.714;2024-03-22T08:42:21;61065.44;;;13.20;nan
7105;BME280;3594;42.152;24.714;2024-03-22T08:44:46;60881.34;;;13.00;nan
7105;BME280;3594;42.152;24.714;2024-03-22T08:47:11;60930.09;;;13.21;nan
7105;BME280;3594;42.152;24.714;2024-03-22T08:49:37;60990.28;;;13.59;nan
7105;BME280;3594;42.152;24.714;2024-03-22T08:52:02;61158.91;;;13.47;nan
7105;BME280;3594;42.152;24.714;2024-03-22T08:54:28;60960.47;;;13.48;nan
7105;BME280;3594;42.152;24.714;2024-03-22T08:56:53;60954.41;;;13.34;nan
7105;BME280;3594;42.152;24.714;2024-03-22T08:59:19;60960.03;;;13.39;nan
7105;BME280;3594;42.152;24.714;2024-03-22T09:01:44;61052.03;;;13.66;nan
7105;BME280;3594;42.152;24.714;2024-03-22T09:04:09;61011.78;;;13.48;nan
7105;BME280;3594;42.152;24.714;2024-03-22T09:06:35;61008.28;;;13.34;nan
7105;BME280;3594;42.152;24.714;2024-03-22T09:09:00;61047.59;;;13.57;nan
7105;BME280;3594;42.152;24.714;2024-03-22T09:11:26;61052.56;;;13.71;nan
7105;BME280;3594;42.152;24.714;2024-03-22T09:13:52;61001.72;;;13.35;nan
7105;BME280;3594;42.152;24.714;2024-03-22T09:16:19;61077.91;;;13.73;nan
7105;BME280;3594;42.152;24.714;2024-03-22T09:18:44;61048.84;;;13.70;nan
7105;BME280;3594;42.152;24.714;2024-03-22T09:21:10;61073.16;;;13.87;nan
7105;BME280;3594;42.152;24.714;2024-03-22T09:23:36;61139.09;;;13.84;nan
7105;BME280;3594;42.152;24.714;2024-03-22T09:26:01;61042.41;;;13.83;nan
7105;BME280;3594;42.152;24.714;2024-03-22T09:28:27;61065.19;;;13.85;nan
7105;BME280;3594;42.152;24.714;2024-03-22T09:30:52;61114.31;;;14.03;nan
7105;BME280;3594;42.152;24.714;2024-03-22T09:33:18;61104.47;;;14.34;nan
7105;BME280;3594;42.152;24.714;2024-03-22T09:35:43;61165.63;;;14.54;nan
7105;BME280;3594;42.152;24.714;2024-03-22T09:38:09;61182.56;;;14.69;nan
7105;BME280;3594;42.152;24.714;2024-03-22T09:40:35;61141.47;;;14.65;nan
7105;BME280;3594;42.152;24.714;2024-03-22T09:43:04;61119.66;;;14.31;nan
7105;BME280;3594;42.152;24.714;2024-03-22T09:45:31;61089.69;;;13.88;nan
7105;BME280;3594;42.152;24.714;2024-03-22T09:47:56;61055.16;;;13.46;nan
7105;BME280;3594;42.152;24.714;2024-03-22T09:50:23;61041.78;;;13.66;nan
7105;BME280;3594;42.152;24.714;2024-03-22T09:52:48;61091.44;;;13.85;nan
7105;BME280;3594;42.152;24.714;2024-03-22T09:55:16;61127.28;;;14.15;nan
7105;BME280;3594;42.152;24.714;2024-03-22T09:57:43;61084.63;;;14.04;nan
7105;BME280;3594;42.152;24.714;2024-03-22T10:00:10;61122.25;;;14.06;nan
7105;BME280;3594;42.152;24.714;2024-03-22T10:02:39;61050.88;;;13.90;nan
7105;BME280;3594;42.152;24.714;2024-03-22T10:05:05;61107.97;;;13.86;nan
7105;BME280;3594;42.152;24.714;2024-03-22T10:07:32;61031.50;;;13.66;nan
7105;BME280;3594;42.152;24.714;2024-03-22T10:09:58;61101.66;;;13.90;nan
7105;BME280;3594;42.152;24.714;2024-03-22T10:12:24;61073.91;;;13.95;nan
7105;BME280;3594;42.152;24.714;2024-03-22T10:14:52;61120.38;;;13.97;nan
7105;BME280;3594;42.152;24.714;2024-03-22T10:17:18;61134.19;;;14.12;nan
7105;BME280;3594;42.152;24.714;2024-03-22T10:19:44;61128.97;;;14.16;nan
7105;BME280;3594;42.152;24.714;2024-03-22T10:22:09;61148.91;;;14.21;nan
7105;BME280;3594;42.152;24.714;2024-03-22T10:24:35;61133.63;;;14.32;nan
7105;BME280;3594;42.152;24.714;2024-03-22T10:27:01;61110.47;;;14.37;nan
7105;BME280;3594;42.152;24.714;2024-03-22T10:29:27;61133.44;;;14.25;nan
7105;BME280;3594;42.152;24.714;2024-03-22T10:31:54;61166.38;;;14.15;nan
7105;BME280;3594;42.152;24.714;2024-03-22T10:34:24;61261.75;;;14.39;nan
7105;BME280;3594;42.152;24.714;2024-03-22T10:36:50;61183.56;;;14.79;nan
7105;BME280;3594;42.152;24.714;2024-03-22T10:39:19;61192.47;;;14.96;nan
7105;BME280;3594;42.152;24.714;2024-03-22T10:41:48;61153.19;;;14.84;nan
7105;BME280;3594;42.152;24.714;2024-03-22T10:44:14;61184.84;;;15.08;nan
7105;BME280;3594;42.152;24.714;2024-03-22T10:46:44;61175.59;;;14.97;nan
7105;BME280;3594;42.152;24.714;2024-03-22T10:49:18;61228.47;;;14.96;nan
7105;BME280;3594;42.152;24.714;2024-03-22T10:51:50;61163.97;;;14.89;nan
7105;BME280;3594;42.152;24.714;2024-03-22T10:54:20;61202.63;;;15.06;nan
7105;BME280;3594;42.152;24.714;2024-03-22T10:56:48;61176.03;;;14.86;nan
7105;BME280;3594;42.152;24.714;2024-03-22T10:59:18;61167.50;;;14.42;nan
7105;BME280;3594;42.152;24.714;2024-03-22T11:01:49;61143.81;;;14.16;nan
7105;BME280;3594;42.152;24.714;2024-03-22T11:04:19;61121.59;;;14.14;nan
7105;BME280;3594;42.152;24.714;2024-03-22T11:06:51;61182.50;;;14.74;nan
7105;BME280;3594;42.152;24.714;2024-03-22T11:09:23;61159.25;;;14.99;nan
7105;BME280;3594;42.152;24.714;2024-03-22T11:11:51;61182.47;;;14.94;nan
7105;BME280;3594;42.152;24.714;2024-03-22T11:14:17;61196.22;;;15.14;nan
7105;BME280;3594;42.152;24.714;2024-03-22T11:16:46;61221.03;;;15.36;nan
7105;BME280;3594;42.152;24.714;2024-03-22T11:19:11;61263.06;;;15.60;nan
7105;BME280;3594;42.152;24.714;2024-03-22T11:21:37;61285.41;;;15.77;nan
7105;BME280;3594;42.152;24.714;2024-03-22T11:24:04;61225.34;;;15.74;nan
7105;BME280;3594;42.152;24.714;2024-03-22T11:26:30;61286.41;;;15.46;nan
7105;BME280;3594;42.152;24.714;2024-03-22T11:28:55;61214.47;;;15.37;nan
7105;BME280;3594;42.152;24.714;2024-03-22T11:31:22;61220.44;;;14.98;nan
7105;BME280;3594;42.152;24.714;2024-03-22T11:33:53;61138.56;;;14.87;nan
7105;BME280;3594;42.152;24.714;2024-03-22T11:36:18;61205.44;;;15.08;nan
7105;BME280;3594;42.152;24.714;2024-03-22T11:38:44;61181.97;;;15.10;nan
7105;BME280;3594;42.152;24.714;2024-03-22T11:41:10;61237.25;;;15.23;nan
7105;BME280;3594;42.152;24.714;2024-03-22T11:43:37;61225.16;;;15.30;nan
7105;BME280;3594;42.152;24.714;2024-03-22T11:46:02;61189.00;;;15.19;nan
7105;BME280;3594;42.152;24.714;2024-03-22T11:48:28;61222.50;;;15.35;nan
7105;BME280;3594;42.152;24.714;2024-03-22T11:50:54;61183.69;;;15.48;nan
7105;BME280;3594;42.152;24.714;2024-03-22T11:53:21;61248.56;;;15.54;nan
7105;BME280;3594;42.152;24.714;2024-03-22T11:55:49;61253.81;;;15.65;nan
7105;BME280;3594;42.152;24.714;2024-03-22T11:58:14;61282.16;;;15.86;nan
7105;BME280;3594;42.152;24.714;2024-03-22T12:00:42;61288.97;;;15.87;nan
7105;BME280;3594;42.152;24.714;2024-03-22T12:03:07;61219.03;;;15.57;nan
7105;BME280;3594;42.152;24.714;2024-03-22T12:05:34;61218.22;;;15.33;nan
7105;BME280;3594;42.152;24.714;2024-03-22T12:07:59;61235.50;;;15.05;nan
7105;BME280;3594;42.152;24.714;2024-03-22T12:10:25;61189.19;;;15.05;nan
7105;BME280;3594;42.152;24.714;2024-03-22T12:12:50;61174.31;;;14.85;nan
7105;BME280;3594;42.152;24.714;2024-03-22T12:15:15;61180.91;;;14.63;nan
7105;BME280;3594;42.152;24.714;2024-03-22T12:17:41;61155.84;;;14.59;nan
7105;BME280;3594;42.152;24.714;2024-03-22T12:20:08;61151.84;;;14.60;nan
7105;BME280;3594;42.152;24.714;2024-03-22T12:22:34;61207.63;;;14.94;nan
7105;BME280;3594;42.152;24.714;2024-03-22T12:25:00;61211.47;;;15.07;nan
7105;BME280;3594;42.152;24.714;2024-03-22T12:27:25;61172.63;;;15.04;nan
7105;BME280;3594;42.152;24.714;2024-03-22T12:29:51;61143.09;;;14.91;nan
7105;BME280;3594;42.152;24.714;2024-03-22T12:32:16;61242.28;;;15.11;nan
7105;BME280;3594;42.152;24.714;2024-03-22T12:34:42;61200.34;;;15.03;nan
7105;BME280;3594;42.152;24.714;2024-03-22T12:37:07;61175.66;;;14.93;nan
7105;BME280;3594;42.152;24.714;2024-03-22T12:39:33;61245.28;;;14.79;nan
7105;BME280;3594;42.152;24.714;2024-03-22T12:41:59;61211.84;;;15.00;nan
7105;BME280;3594;42.152;24.714;2024-03-22T12:44:25;61218.56;;;15.11;nan
7105;BME280;3594;42.152;24.714;2024-03-22T12:46:51;61203.31;;;14.97;nan
7105;BME280;3594;42.152;24.714;2024-03-22T12:49:17;61201.34;;;15.14;nan
7105;BME280;3594;42.152;24.714;2024-03-22T12:51:42;61217.28;;;15.19;nan
7105;BME280;3594;42.152;24.714;2024-03-22T12:54:08;61102.44;;;14.76;nan
7105;BME280;3594;42.152;24.714;2024-03-22T12:56:34;61212.91;;;15.06;nan
7105;BME280;3594;42.152;24.714;2024-03-22T12:58:59;61221.13;;;15.11;nan
7105;BME280;3594;42.152;24.714;2024-03-22T13:01:25;61180.00;;;15.27;nan
7105;BME280;3594;42.152;24.714;2024-03-22T13:03:51;61169.09;;;15.10;nan
7105;BME280;3594;42.152;24.714;2024-03-22T13:06:16;61197.84;;;14.99;nan
7105;BME280;3594;42.152;24.714;2024-03-22T13:08:42;61211.97;;;15.12;nan
7105;BME280;3594;42.152;24.714;2024-03-22T13:11:08;61208.81;;;14.90;nan
7105;BME280;3594;42.152;24.714;2024-03-22T13:13:36;61176.59;;;14.87;nan
7105;BME280;3594;42.152;24.714;2024-03-22T13:16:02;61182.31;;;14.87;nan
7105;BME280;3594;42.152;24.714;2024-03-22T13:18:31;61169.53;;;14.99;nan
7105;BME280;3594;42.152;24.714;2024-03-22T13:20:56;61202.34;;;15.03;nan
7105;BME280;3594;42.152;24.714;2024-03-22T13:23:22;61246.34;;;15.06;nan
7105;BME280;3594;42.152;24.714;2024-03-22T13:25:47;61185.38;;;14.92;nan
7105;BME280;3594;42.152;24.714;2024-03-22T13:28:13;61148.31;;;14.87;nan
7105;BME280;3594;42.152;24.714;2024-03-22T13:30:38;61193.09;;;14.92;nan
7105;BME280;3594;42.152;24.714;2024-03-22T13:33:04;61244.47;;;15.18;nan
7105;BME280;3594;42.152;24.714;2024-03-22T13:35:29;61213.78;;;15.04;nan